createdAt,value
2023-02-18T00:01:54.141Z,2.20
2023-02-18T00:04:22.504Z,2.10
2023-02-18T00:06:50.829Z,4.10
2023-02-18T00:09:19.123Z,2.90
2023-02-18T00:11:47.470Z,2.10
2023-02-18T00:14:17.069Z,3.00
2023-02-18T00:16:46.749Z,1.80
2023-02-18T00:19:18.769Z,2.20
2023-02-18T00:27:46.966Z,2.70
2023-02-18T00:30:15.570Z,3.80
2023-02-18T00:32:44.650Z,2.30
2023-02-18T00:35:12.987Z,1.60
2023-02-18T00:37:41.404Z,2.90
2023-02-18T00:40:10.196Z,1.60
2023-02-18T00:42:38.580Z,2.60
2023-02-18T00:45:07.675Z,1.70
2023-02-18T00:47:35.997Z,2.50
2023-02-18T00:50:04.759Z,1.30
2023-02-18T00:52:33.197Z,8.70
2023-02-18T00:55:01.541Z,1.70
2023-02-18T00:57:29.902Z,2.20
2023-02-18T00:59:58.280Z,2.80
2023-02-18T01:02:26.697Z,1.20
2023-02-18T01:04:55.136Z,5.00
2023-02-18T01:07:23.523Z,2.20
2023-02-18T01:09:51.910Z,2.40
2023-02-18T01:12:20.341Z,2.90
2023-02-18T01:14:48.678Z,3.50
2023-02-18T01:17:17.016Z,1.10
2023-02-18T01:19:45.344Z,1.20
2023-02-18T01:22:13.738Z,2.50
2023-02-18T01:24:42.140Z,1.00
2023-02-18T01:27:10.436Z,1.30
2023-02-18T01:29:38.799Z,1.90
2023-02-18T01:32:07.399Z,1.50
2023-02-18T01:34:35.811Z,5.20
2023-02-18T01:37:04.125Z,1.30
2023-02-18T01:39:32.641Z,1.80
2023-02-18T01:42:01.021Z,1.20
2023-02-18T01:44:29.812Z,3.20
2023-02-18T01:46:58.152Z,1.10
2023-02-18T01:49:35.878Z,2.90
2023-02-18T01:52:17.198Z,2.30
2023-02-18T01:54:52.819Z,2.50
2023-02-18T01:57:31.244Z,1.10
2023-02-18T02:00:12.699Z,1.10
2023-02-18T02:02:45.928Z,2.50
2023-02-18T02:05:15.309Z,1.50
2023-02-18T02:07:45.889Z,2.20
2023-02-18T02:10:16.816Z,4.20
2023-02-18T02:12:57.226Z,3.80
2023-02-18T02:15:45.266Z,3.30
2023-02-18T02:18:47.985Z,2.60
2023-02-18T02:21:58.106Z,2.00
2023-02-18T02:25:13.721Z,1.00
2023-02-18T02:28:34.692Z,0.70
2023-02-18T02:31:42.964Z,2.20
2023-02-18T02:34:40.421Z,4.70
2023-02-18T02:37:25.871Z,2.40
2023-02-18T02:40:22.514Z,2.20
2023-02-18T02:43:03.006Z,1.10
2023-02-18T02:45:49.908Z,1.50
2023-02-18T02:48:47.894Z,1.00
2023-02-18T02:52:13.441Z,3.30
2023-02-18T02:54:41.818Z,1.30
2023-02-18T02:57:30.525Z,1.40
2023-02-18T03:00:05.664Z,4.40
2023-02-18T03:03:06.075Z,2.10
2023-02-18T03:06:11.107Z,3.10
2023-02-18T03:08:52.136Z,1.90
2023-02-18T03:11:20.630Z,3.40
2023-02-18T03:14:10.446Z,4.60
2023-02-18T03:16:51.125Z,1.90
2023-02-18T03:19:45.789Z,1.90
2023-02-18T03:22:39.968Z,3.60
2023-02-18T03:25:10.398Z,2.20
2023-02-18T03:27:51.336Z,0.90
2023-02-18T03:30:48.206Z,1.20
2023-02-18T03:33:25.066Z,1.60
2023-02-18T03:35:56.570Z,2.00
2023-02-18T03:38:40.390Z,2.00
2023-02-18T03:41:08.837Z,2.00
2023-02-18T03:43:37.220Z,2.60
2023-02-18T03:46:05.658Z,3.80
2023-02-18T03:48:34.129Z,2.80
2023-02-18T03:51:02.435Z,1.10
2023-02-18T03:53:30.812Z,1.40
2023-02-18T03:55:59.148Z,0.60
2023-02-18T03:58:27.445Z,1.70
2023-02-18T04:00:55.842Z,1.30
2023-02-18T04:03:24.198Z,0.80
2023-02-18T04:05:52.516Z,2.70
2023-02-18T04:08:20.998Z,1.60
2023-02-18T04:10:49.471Z,1.30
2023-02-18T04:13:18.087Z,0.80
2023-02-18T04:15:48.907Z,2.70
2023-02-18T04:18:18.022Z,0.80
2023-02-18T04:20:46.505Z,0.60
2023-02-18T04:23:15.275Z,5.80
2023-02-18T04:25:43.688Z,1.30
2023-02-18T04:28:15.324Z,1.10
2023-02-18T04:30:45.213Z,4.00
2023-02-18T04:33:14.429Z,2.70
2023-02-18T04:35:42.748Z,4.50
2023-02-18T04:38:12.119Z,0.70
2023-02-18T04:40:40.495Z,2.20
2023-02-18T04:43:08.852Z,0.60
2023-02-18T04:45:37.202Z,2.80
2023-02-18T04:48:06.136Z,5.60
2023-02-18T04:50:35.185Z,1.20
2023-02-18T04:53:03.554Z,1.90
2023-02-18T04:55:31.880Z,1.30
2023-02-18T04:58:00.190Z,1.70
2023-02-18T05:00:29.305Z,1.30
2023-02-18T05:02:57.644Z,2.20
2023-02-18T05:05:26.367Z,2.80
2023-02-18T05:07:54.698Z,1.10
2023-02-18T05:10:23.041Z,6.20
2023-02-18T05:12:51.427Z,2.10
2023-02-18T05:15:19.764Z,0.60
2023-02-18T05:17:48.116Z,3.80
2023-02-18T05:20:16.636Z,1.50
2023-02-18T05:22:45.122Z,1.90
2023-02-18T05:25:13.423Z,1.80
2023-02-18T05:27:41.754Z,2.30
2023-02-18T05:30:10.715Z,2.90
2023-02-18T05:32:39.113Z,5.10
2023-02-18T05:35:08.132Z,1.40
2023-02-18T05:37:36.519Z,1.00
2023-02-18T05:40:06.081Z,3.30
2023-02-18T05:42:34.435Z,1.60
2023-02-18T05:45:03.485Z,1.00
2023-02-18T05:47:31.818Z,1.20
2023-02-18T05:50:00.228Z,1.00
2023-02-18T05:52:28.598Z,0.80
2023-02-18T05:54:57.042Z,4.20
2023-02-18T05:57:25.634Z,1.70
2023-02-18T05:59:53.989Z,1.40
2023-02-18T06:02:22.434Z,3.40
2023-02-18T06:04:51.002Z,1.30
2023-02-18T06:07:20.654Z,2.20
2023-02-18T06:09:49.008Z,1.80
2023-02-18T06:12:17.342Z,1.10
2023-02-18T06:14:46.168Z,1.00
2023-02-18T06:17:15.767Z,0.90
2023-02-18T06:19:45.441Z,1.70
2023-02-18T06:22:13.957Z,1.00
2023-02-18T06:24:42.310Z,0.90
2023-02-18T06:27:10.732Z,2.30
2023-02-18T06:29:39.049Z,0.80
2023-02-18T06:32:07.441Z,1.20
2023-02-18T06:34:35.792Z,2.60
2023-02-18T06:37:04.135Z,2.30
2023-02-18T06:39:32.576Z,2.70
2023-02-18T06:42:02.428Z,0.90
2023-02-18T06:44:30.797Z,2.60
2023-02-18T06:47:00.105Z,3.50
2023-02-18T06:49:28.505Z,3.10
2023-02-18T06:51:56.894Z,1.60
2023-02-18T06:54:25.374Z,1.20
2023-02-18T06:56:53.910Z,5.40
2023-02-18T06:59:22.278Z,1.60
2023-02-18T07:01:50.644Z,2.10
2023-02-18T07:04:18.916Z,2.20
2023-02-18T07:06:47.232Z,1.70
2023-02-18T07:09:16.870Z,2.60
2023-02-18T07:11:47.364Z,3.70
2023-02-18T07:14:15.674Z,1.30
2023-02-18T07:16:44.139Z,1.00
2023-02-18T07:19:14.854Z,2.50
2023-02-18T07:21:43.627Z,2.10
2023-02-18T07:24:12.251Z,0.90
2023-02-18T07:26:40.943Z,1.50
2023-02-18T07:29:09.400Z,4.00
2023-02-18T07:31:38.822Z,1.10
2023-02-18T07:34:07.262Z,1.30
2023-02-18T07:36:35.726Z,1.30
2023-02-18T07:39:04.449Z,2.00
2023-02-18T07:41:32.916Z,1.20
2023-02-18T07:44:01.254Z,2.60
2023-02-18T07:46:29.761Z,1.80
2023-02-18T07:48:58.427Z,1.40
2023-02-18T07:51:26.902Z,1.00
2023-02-18T07:53:56.997Z,2.30
2023-02-18T07:56:25.422Z,1.90
2023-02-18T07:58:53.894Z,1.10
2023-02-18T08:01:22.332Z,4.00
2023-02-18T08:03:50.839Z,2.30
2023-02-18T08:06:37.700Z,3.30
2023-02-18T08:09:07.267Z,2.90
2023-02-18T08:11:36.084Z,4.90
2023-02-18T08:14:17.321Z,2.40
2023-02-18T08:16:46.839Z,2.90
2023-02-18T08:19:15.201Z,1.70
2023-02-18T08:21:43.515Z,1.60
2023-02-18T08:24:11.988Z,2.30
2023-02-18T08:26:48.685Z,1.40
2023-02-18T08:29:27.752Z,2.60
2023-02-18T08:31:59.583Z,2.20
2023-02-18T08:34:27.971Z,2.50
2023-02-18T08:36:56.940Z,2.60
2023-02-18T08:39:25.255Z,1.80
2023-02-18T08:41:54.704Z,2.90
2023-02-18T08:44:22.999Z,3.70
2023-02-18T08:46:53.089Z,2.40
2023-02-18T08:49:24.057Z,2.80
2023-02-18T08:51:52.483Z,7.10
2023-02-18T08:54:20.936Z,3.50
2023-02-18T08:56:49.488Z,1.90
2023-02-18T08:59:17.868Z,1.30
2023-02-18T09:01:46.344Z,1.10
2023-02-18T09:04:14.704Z,1.10
2023-02-18T09:06:43.283Z,2.30
2023-02-18T09:09:11.597Z,1.30
2023-02-18T09:11:40.203Z,0.70
2023-02-18T09:14:08.846Z,2.70
2023-02-18T09:16:38.462Z,2.20
2023-02-18T09:19:07.290Z,1.10
2023-02-18T09:21:35.728Z,7.30
2023-02-18T09:24:04.378Z,4.10
2023-02-18T09:26:33.117Z,2.40
2023-02-18T09:29:01.778Z,4.30
2023-02-18T09:31:30.760Z,3.50
2023-02-18T09:34:02.585Z,6.90
2023-02-18T09:36:31.101Z,1.60
2023-02-18T09:38:59.890Z,1.50
2023-02-18T09:41:48.581Z,2.30
2023-02-18T09:44:30.121Z,1.90
2023-02-18T09:47:44.437Z,3.20
2023-02-18T09:50:35.397Z,4.60
2023-02-18T09:53:04.424Z,1.50
2023-02-18T09:55:39.326Z,4.50
2023-02-18T09:58:34.836Z,5.40
2023-02-18T10:01:12.326Z,2.20
2023-02-18T10:03:41.176Z,8.20
2023-02-18T10:06:18.157Z,1.80
2023-02-18T10:08:50.867Z,2.40
2023-02-18T10:11:30.616Z,3.20
2023-02-18T10:14:02.741Z,2.60
2023-02-18T10:16:31.441Z,6.30
2023-02-18T10:19:05.939Z,4.30
2023-02-18T10:21:36.219Z,3.60
2023-02-18T10:24:29.130Z,2.40
2023-02-18T10:26:58.744Z,4.10
2023-02-18T10:29:29.335Z,2.90
2023-02-18T10:32:28.253Z,4.60
2023-02-18T10:35:17.651Z,2.70
2023-02-18T10:38:20.922Z,4.50
2023-02-18T10:41:08.468Z,3.30
2023-02-18T10:43:49.798Z,4.80
2023-02-18T10:47:17.489Z,4.00
2023-02-18T10:49:59.622Z,4.30
2023-02-18T10:52:43.418Z,1.80
2023-02-18T10:55:18.700Z,5.20
2023-02-18T11:00:33.370Z,7.80
2023-02-18T11:03:26.041Z,5.20
2023-02-18T11:05:58.954Z,4.10
2023-02-18T11:08:37.563Z,5.60
2023-02-18T11:11:25.524Z,3.00
2023-02-18T11:13:57.444Z,3.60
2023-02-18T11:16:42.252Z,5.40
2023-02-18T11:19:35.515Z,5.80
2023-02-18T11:22:33.301Z,7.00
2023-02-18T11:25:04.924Z,9.20
2023-02-18T11:27:43.977Z,5.00
2023-02-18T11:30:39.087Z,3.10
2023-02-18T11:33:24.504Z,6.90
2023-02-18T11:35:56.203Z,4.00
2023-02-18T11:38:35.316Z,7.00
2023-02-18T11:41:11.520Z,8.00
2023-02-18T11:43:48.361Z,7.60
2023-02-18T11:46:28.150Z,4.80
2023-02-18T11:49:22.159Z,6.10
2023-02-18T11:51:51.700Z,5.50
2023-02-18T11:54:27.894Z,4.00
2023-02-18T11:57:05.742Z,6.60
2023-02-18T11:59:38.251Z,2.80
2023-02-18T12:02:40.054Z,5.00
2023-02-18T12:05:25.498Z,7.90
2023-02-18T12:08:05.200Z,6.90
2023-02-18T12:11:08.987Z,6.50
2023-02-18T12:14:23.037Z,8.80
2023-02-18T12:17:19.694Z,6.30
2023-02-18T12:20:37.693Z,7.70
2023-02-18T12:23:38.398Z,7.50
2023-02-18T12:26:24.957Z,12.30
2023-02-18T12:29:26.630Z,6.70
2023-02-18T12:32:54.477Z,9.00
2023-02-18T12:36:11.487Z,8.50
2023-02-18T12:41:44.308Z,7.20
2023-02-18T12:44:37.369Z,11.40
2023-02-18T12:47:34.189Z,11.30
2023-02-18T12:50:23.636Z,8.60
2023-02-18T12:53:05.690Z,6.80
2023-02-18T12:56:47.488Z,12.00
2023-02-18T13:00:01.081Z,5.70
2023-02-18T13:03:05.439Z,3.90
2023-02-18T13:06:01.846Z,6.70
2023-02-18T13:09:31.178Z,198.80
2023-02-18T13:12:31.014Z,152.70
2023-02-18T13:15:34.098Z,53.80
2023-02-18T13:18:10.713Z,18.20
2023-02-18T13:20:58.076Z,11.50
2023-02-18T13:23:37.944Z,7.10
2023-02-18T13:26:14.897Z,11.50
2023-02-18T13:29:01.082Z,8.50
2023-02-18T13:32:03.331Z,7.40
2023-02-18T13:34:41.798Z,11.90
2023-02-18T13:37:57.464Z,5.80
2023-02-18T13:40:30.651Z,4.90
2023-02-18T13:43:38.036Z,9.70
2023-02-18T13:46:17.555Z,8.00
2023-02-18T13:48:52.373Z,9.60
2023-02-18T13:51:41.830Z,7.10
2023-02-18T13:54:13.213Z,10.70
2023-02-18T13:56:57.725Z,6.50
2023-02-18T13:59:47.891Z,7.40
2023-02-18T14:02:25.685Z,12.00
2023-02-18T14:05:16.151Z,10.40
2023-02-18T14:08:06.542Z,11.20
2023-02-18T14:10:36.948Z,16.70
2023-02-18T14:13:40.328Z,30.20
2023-02-18T14:16:11.288Z,13.50
2023-02-18T14:18:39.593Z,10.90
2023-02-18T14:21:14.072Z,11.90
2023-02-18T14:23:51.612Z,9.20
2023-02-18T14:26:30.933Z,7.00
2023-02-18T14:29:19.977Z,8.80
2023-02-18T14:31:55.204Z,9.40
2023-02-18T14:37:23.071Z,7.50
2023-02-18T14:40:12.182Z,12.90
2023-02-18T14:43:23.047Z,10.00
2023-02-18T14:46:13.044Z,12.50
2023-02-18T14:49:28.193Z,14.40
2023-02-18T14:51:57.966Z,14.30
2023-02-18T14:54:29.783Z,18.40
2023-02-18T14:57:06.361Z,17.40
2023-02-18T14:59:40.033Z,16.10
2023-02-18T15:02:38.570Z,13.30
2023-02-18T15:05:38.198Z,17.70
2023-02-18T15:08:21.322Z,13.70
2023-02-18T15:11:08.268Z,13.00
2023-02-18T15:13:45.523Z,8.70
2023-02-18T15:16:37.160Z,12.10
2023-02-18T15:19:13.617Z,14.30
2023-02-18T15:21:46.176Z,14.90
2023-02-18T15:24:34.353Z,11.20
2023-02-18T15:27:19.891Z,14.50
2023-02-18T15:29:56.720Z,11.70
2023-02-18T15:32:29.012Z,11.20
2023-02-18T15:35:13.672Z,9.30
2023-02-18T15:37:46.716Z,15.40
2023-02-18T15:40:16.508Z,9.70
2023-02-18T15:42:52.872Z,5.30
2023-02-18T15:45:33.187Z,4.10
2023-02-18T15:48:02.437Z,2.00
2023-02-18T15:50:45.099Z,2.20
2023-02-18T15:53:18.934Z,1.70
2023-02-18T15:55:53.938Z,2.40
2023-02-18T15:58:32.904Z,1.90
2023-02-18T16:01:08.117Z,1.70
2023-02-18T16:06:25.292Z,3.70
2023-02-18T16:09:07.954Z,3.60
2023-02-18T16:11:43.316Z,1.50
2023-02-18T16:17:22.462Z,2.10
2023-02-18T16:20:16.492Z,1.90
2023-02-18T16:22:54.771Z,2.90
2023-02-18T16:25:44.689Z,1.20
2023-02-18T16:28:23.715Z,2.20
2023-02-18T16:30:52.074Z,3.40
2023-02-18T16:33:20.404Z,1.50
2023-02-18T16:35:50.737Z,2.70
2023-02-18T16:38:23.110Z,1.40
2023-02-18T16:40:54.577Z,1.80
2023-02-18T16:43:27.430Z,1.50
2023-02-18T16:45:59.077Z,1.50
2023-02-18T16:48:32.755Z,1.70
2023-02-18T16:51:07.853Z,2.00
2023-02-18T16:53:36.555Z,2.00
2023-02-18T16:56:06.264Z,1.40
2023-02-18T16:58:34.657Z,3.00
2023-02-18T17:01:03.606Z,3.00
2023-02-18T17:03:32.014Z,2.60
2023-02-18T17:06:00.451Z,2.10
2023-02-18T17:08:29.053Z,3.10
2023-02-18T17:10:58.722Z,2.00
2023-02-18T17:13:29.775Z,2.60
2023-02-18T17:15:59.011Z,1.50
2023-02-18T17:18:27.462Z,1.40
2023-02-18T17:20:57.147Z,1.80
2023-02-18T17:23:25.708Z,1.40
2023-02-18T17:25:54.102Z,1.70
2023-02-18T17:28:23.161Z,1.60
2023-02-18T17:30:57.965Z,1.90
2023-02-18T17:33:26.437Z,1.80
2023-02-18T17:35:54.995Z,1.50
2023-02-18T17:38:23.730Z,1.50
2023-02-18T17:40:52.107Z,1.90
2023-02-18T17:43:20.546Z,1.70
2023-02-18T17:45:55.389Z,1.40
2023-02-18T17:48:25.113Z,1.60
2023-02-18T17:50:53.753Z,1.50
2023-02-18T17:53:22.668Z,1.30
2023-02-18T17:55:51.840Z,0.80
2023-02-18T17:58:20.412Z,1.20
2023-02-18T18:00:57.326Z,1.70
2023-02-18T18:03:25.700Z,1.00
2023-02-18T18:05:54.549Z,1.60
2023-02-18T18:08:23.152Z,1.30
2023-02-18T18:10:58.651Z,1.20
2023-02-18T18:13:32.261Z,1.00
2023-02-18T18:16:01.260Z,1.60
2023-02-18T18:18:29.826Z,2.30
2023-02-18T18:21:01.384Z,1.10
2023-02-18T18:23:30.491Z,0.90
2023-02-18T18:26:00.131Z,1.40
2023-02-18T18:28:28.750Z,1.20
2023-02-18T18:30:57.703Z,1.00
2023-02-18T18:33:30.897Z,1.70
2023-02-18T18:36:01.374Z,1.00
2023-02-18T18:38:30.142Z,1.60
2023-02-18T18:40:58.705Z,1.30
2023-02-18T18:43:32.894Z,1.30
2023-02-18T18:46:01.617Z,1.60
2023-02-18T18:48:30.143Z,2.40
2023-02-18T18:51:00.592Z,1.20
2023-02-18T18:53:33.770Z,1.50
2023-02-18T18:56:06.683Z,1.80
2023-02-18T18:58:35.214Z,2.00
2023-02-18T19:01:05.526Z,1.60
2023-02-18T19:03:35.449Z,1.50
2023-02-18T19:06:04.165Z,2.00
2023-02-18T19:08:33.401Z,2.80
2023-02-18T19:11:02.309Z,2.00
2023-02-18T19:13:33.457Z,1.90
2023-02-18T19:16:11.717Z,3.20
2023-02-18T19:18:40.256Z,2.60
2023-02-18T19:21:09.066Z,5.10
2023-02-18T19:23:37.898Z,3.70
2023-02-18T19:26:07.681Z,3.70
2023-02-18T19:28:36.390Z,3.20
2023-02-18T19:31:11.550Z,3.70
2023-02-18T19:33:40.411Z,3.90
2023-02-18T19:36:11.284Z,6.00
2023-02-18T19:38:39.613Z,3.10
2023-02-18T19:41:13.044Z,2.50
2023-02-18T19:43:42.868Z,3.50
2023-02-18T19:46:16.589Z,8.90
2023-02-18T19:48:50.531Z,4.30
2023-02-18T19:51:21.267Z,4.40
2023-02-18T19:53:49.737Z,4.70
2023-02-18T19:56:18.660Z,3.30
2023-02-18T19:58:47.108Z,5.40
2023-02-18T20:01:17.550Z,3.10
2023-02-18T20:03:47.201Z,2.50
2023-02-18T20:06:18.499Z,3.80
2023-02-18T20:08:47.637Z,3.30
2023-02-18T20:11:16.394Z,3.00
2023-02-18T20:13:44.716Z,3.50
2023-02-18T20:16:13.117Z,2.30
2023-02-18T20:18:41.452Z,3.00
2023-02-18T20:21:12.200Z,3.60
2023-02-18T20:23:41.204Z,2.40
2023-02-18T20:26:11.794Z,1.90
2023-02-18T20:28:40.734Z,3.10
2023-02-18T20:31:12.779Z,2.90
2023-02-18T20:33:44.839Z,2.80
2023-02-18T20:36:14.408Z,2.40
2023-02-18T20:38:42.985Z,3.30
2023-02-18T20:41:17.538Z,3.90
2023-02-18T20:43:47.307Z,2.80
2023-02-18T20:46:21.858Z,4.10
2023-02-18T20:48:50.974Z,2.40
2023-02-18T20:51:21.887Z,3.10
2023-02-18T20:53:51.452Z,4.70
2023-02-18T20:56:21.606Z,2.70
2023-02-18T20:58:51.288Z,4.50
2023-02-18T21:01:20.237Z,6.00
2023-02-18T21:03:49.566Z,2.30
2023-02-18T21:06:22.089Z,2.60
2023-02-18T21:08:53.059Z,5.20
2023-02-18T21:11:25.517Z,2.50
2023-02-18T21:13:56.416Z,3.90
2023-02-18T21:16:26.831Z,4.70
2023-02-18T21:18:55.876Z,5.00
2023-02-18T21:21:24.865Z,5.60
2023-02-18T21:23:53.633Z,5.60
2023-02-18T21:26:25.009Z,4.50
2023-02-18T21:28:57.334Z,3.60
2023-02-18T21:31:32.669Z,2.80
2023-02-18T21:36:31.790Z,2.70
2023-02-18T21:39:05.085Z,3.30
2023-02-18T21:41:35.327Z,2.80
2023-02-18T21:44:03.978Z,7.80
2023-02-18T21:46:34.496Z,2.10
2023-02-18T21:49:12.457Z,4.90
2023-02-18T21:52:05.427Z,9.30
2023-02-18T21:54:42.640Z,4.10
2023-02-18T21:57:14.994Z,3.50
2023-02-18T21:59:45.388Z,3.60
2023-02-18T22:02:34.176Z,6.00
2023-02-18T22:05:02.829Z,9.10
2023-02-18T22:07:31.117Z,3.20
2023-02-18T22:09:59.554Z,2.70
2023-02-18T22:12:27.984Z,2.50
2023-02-18T22:14:56.259Z,3.00
2023-02-18T22:17:24.631Z,3.20
2023-02-18T22:19:53.059Z,4.70
2023-02-18T22:22:21.447Z,6.90
2023-02-18T22:24:50.935Z,7.10
2023-02-18T22:27:19.520Z,9.20
2023-02-18T22:29:47.926Z,9.20
2023-02-18T22:32:16.322Z,9.00
2023-02-18T22:34:44.767Z,10.20
2023-02-18T22:37:13.089Z,9.50
2023-02-18T22:39:41.617Z,10.10
2023-02-18T22:42:10.045Z,6.40
2023-02-18T22:44:39.675Z,7.50
2023-02-18T22:47:08.092Z,8.50
2023-02-18T22:49:36.611Z,5.70
2023-02-18T22:52:05.271Z,5.50
2023-02-18T22:54:33.840Z,5.10
2023-02-18T22:57:02.533Z,4.80
2023-02-18T22:59:31.056Z,4.50
2023-02-18T23:01:59.568Z,4.60
2023-02-18T23:04:28.465Z,4.50
2023-02-18T23:06:57.072Z,3.70
2023-02-18T23:09:26.221Z,4.50
2023-02-18T23:11:58.121Z,4.50
2023-02-18T23:14:28.199Z,5.50
2023-02-18T23:17:14.290Z,4.90
2023-02-18T23:19:48.807Z,5.00
2023-02-18T23:22:24.610Z,6.80
2023-02-18T23:24:53.344Z,9.10
2023-02-18T23:27:23.237Z,9.70
2023-02-18T23:29:53.122Z,10.00
2023-02-18T23:32:21.464Z,10.70
2023-02-18T23:34:51.625Z,8.90
2023-02-18T23:37:41.723Z,8.60
2023-02-18T23:40:13.773Z,12.20
2023-02-18T23:42:42.136Z,9.40
2023-02-18T23:45:10.469Z,6.40
2023-02-18T23:47:38.770Z,8.80
2023-02-18T23:50:07.374Z,7.80
2023-02-18T23:52:35.780Z,6.90
2023-02-18T23:55:04.405Z,5.60
2023-02-18T23:57:33.088Z,5.60
